Terminal Aerodrome Forecast
Issued by NWS Brownsville, TX

Home | Current Version | Previous Version | Text Only | Print | Product List | Glossary On
Versions: 1 2 3 4 5 6 7 8 9 10 11 12 13 14 15
000
FTUS44 KBRO 041728
TAFMFE
TAF
KMFE 041728Z 0418/0518 16012KT P6SM OVC018
     FM042000 17015G22KT P6SM SCT020 BKN030
     FM050100 14010KT 5SM BR BKN015
     FM050400 14008KT P6SM OVC007
     FM050900 36018G25KT P6SM -SHRA OVC006
     FM051200 35022G30KT 6SM -SHRA BR OVC006=

USA.gov is the U.S. government's official web portal to all federal, state and local government web resources and services.